Seiyo Maru — JMFG — position and weather

sailwx.info

Track history (hours):
 
Tides and Currents Weather Stations Pressure Air Temp Water Temp Dewpoint Dewpoint Depression Visibility Wind Speed Wind Dir Waves Ship Positions

Oceanographic research ship Seiyo Maru (Japan)

Detailed information on ship capabilities available from University of Delaware's Ocean Information Center.

Last reported at 2017-Jun-23 06:18 UTC. Time now 2017-Jun-26 17:04 UTC.
Position N 35°38' E 139°45'.

Length 36 m; beam 7 m.

Type: Other ship. MMSI: 431431000.

Date/timePositionNaut miles runAvg speedWind from/ knotsBaromVisibWave heightAir tempDewpointWater temp
2017-Jun-23 06:18N 35°38' E 139°45'3 7.6
2017-Jun-23 05:55N 35°36' E 139°47'3 8.3
2017-Jun-23 05:30N 35°33' E 139°50'3 4.7
2017-Jun-23 04:50N 35°30' E 139°49'3 8.4
2017-Jun-23 04:30N 35°28' E 139°47'3 5.8
2017-Jun-23 03:56N 35°26' E 139°44'3 7.6
2017-Jun-23 03:29N 35°23' E 139°41'  
2017-Jun-14 03:30N 35°21' E 139°42'4 8.4
2017-Jun-14 02:59N 35°25' E 139°44'8 8.8
2017-Jun-14 02:04N 35°32' E 139°50'1 7.8
2017-Jun-14 01:53N 35°33' E 139°50'5 8.5
2017-Jun-14 01:21N 35°36' E 139°46'  
Track history (hours):
 
Tides and Currents Weather Stations Pressure Air Temp Water Temp Dewpoint Dewpoint Depression Visibility Wind Speed Wind Dir Waves Ship Positions

Oceanographic research ship Seiyo Maru (Japan)

Detailed information on ship capabilities available from University of Delaware's Ocean Information Center.

Last reported at 2017-Jun-23 06:18 UTC. Time now 2017-Jun-26 17:04 UTC.
Position N 35°38' E 139°45'.

Length 36 m; beam 7 m.

Type: Other ship. MMSI: 431431000.

Date/timePositionNaut miles runAvg speedWind from/ knotsBaromVisibWave heightAir tempDewpointWater temp
2017-Jun-23 06:18N 35°38' E 139°45'3 7.6
2017-Jun-23 05:55N 35°36' E 139°47'3 8.3
2017-Jun-23 05:30N 35°33' E 139°50'3 4.7
2017-Jun-23 04:50N 35°30' E 139°49'3 8.4
2017-Jun-23 04:30N 35°28' E 139°47'3 5.8
2017-Jun-23 03:56N 35°26' E 139°44'3 7.6
2017-Jun-23 03:29N 35°23' E 139°41'  
2017-Jun-14 03:30N 35°21' E 139°42'4 8.4
2017-Jun-14 02:59N 35°25' E 139°44'8 8.8
2017-Jun-14 02:04N 35°32' E 139°50'1 7.8
2017-Jun-14 01:53N 35°33' E 139°50'5 8.5
2017-Jun-14 01:21N 35°36' E 139°46'  

Dump ship's entire track history